Niagara Falls, NY

11:51 PM EDT on April 17, 2015 (GMT -0400)
Monroe Sub Niagara Falls ON | | Change Station
CLOSE
Current Station
Personal Weather Station
Location: Niagara Falls, ON
Elevation: 670 ft
Nearby Weather Stations

Elev 670 ft 43.11 °N, 79.11 °W | Updated 3 seconds ago

Clear
Clear
49.8 °F
Feels Like 50 °F
N
0.7
Wind Variable Wind from SE
Gusts 3.8 mph

Today
High -- | Low -- °F
--% Chance of Precip.
Yesterday
High -- | Low -- °F
Precip. -- in
6:31 AM 8:00 PM
Waning Crescent, 1% visible
Pressure 30.03 in
Visibility 10.0 miles
Clouds Clear
Windchill 50 °F
Dew Point 47 °F
Humidity 89%
Rainfall 0.09 in
Snow Depth Not available.
UV 0 out of 12
Pollen 6.90 out of 12
Air Quality Not available.
Flu Activity Widespread
METAR KIAG 180253Z 19004KT 10SM CLR 08/06 A3001 RMK AO2 SLP168 LAST T00830056 50012

More Conditions Fewer Conditions

Pressure 30.03 in
Visibility 10.0 miles
Clouds Clear
Windchill 50 °F
Dew Point 47 °F
Humidity 89%
Rainfall 0.09 in
Snow Depth Not available.
UV 0 out of 12
Pollen 6.90 out of 12
Air Quality Not available.
Flu Activity Widespread
METAR KIAG 180253Z 19004KT 10SM CLR 08/06 A3001 RMK AO2 SLP168 LAST T00830056 50012

More Conditions Fewer Conditions

10-Day Weather Forecast

Almanac

Astronomy

Apr. 17, 2015 Rise Set
Actual Time
Civil Twilight
Nautical Twilight
Astronomical Twilight
Moon
Length of Visible Light
Length of Day
Tomorrow will be .
, % of the Moon is Illuminated

Today's Extremes

State Highs State Lows

Community

WunderPhotos

Upload Photos

1,814,316 photos uploaded!

WunderBlogs® & News

Nearby

Air Quality

  Air Quality AQ Index Pollutant
Not available.

Snow Depth

Station Depth Elevation

Earthquake Activity

City Distance Mag. Time & Date
Minimum magnitude displayed is 2.5.

Coastal Water Temperatures

Place Temperature

Stations

Nearby Weather Stations

Station Location Temp. Windchill Dew Point Humidity Wind Precip. Elev Updated Type